createdAt,value
2019-02-28T00:00:06.599Z,3.67
2019-02-28T00:05:15.762Z,4.13
2019-02-28T00:10:31.467Z,3.80
2019-02-28T00:15:36.915Z,4.93
2019-02-28T00:20:41.082Z,5.27
2019-02-28T00:25:45.886Z,5.73
2019-02-28T00:30:50.182Z,9.57
2019-02-28T00:35:55.476Z,5.80
2019-02-28T00:40:59.667Z,4.03
2019-02-28T00:46:07.249Z,3.20
2019-02-28T00:51:10.843Z,5.13
2019-02-28T00:56:17.510Z,3.93
2019-02-28T01:01:22.573Z,3.20
2019-02-28T01:06:29.673Z,5.20
2019-02-28T01:11:33.845Z,3.70
2019-02-28T01:16:41.370Z,4.60
2019-02-28T01:21:45.620Z,5.73
2019-02-28T01:26:50.723Z,4.63
2019-02-28T01:31:54.983Z,5.20
2019-02-28T01:37:00.301Z,4.83
2019-02-28T01:42:04.474Z,3.77
2019-02-28T01:47:10.266Z,3.97
2019-02-28T01:52:14.465Z,4.07
2019-02-28T01:57:19.803Z,6.30
2019-02-28T02:02:23.985Z,6.67
2019-02-28T02:07:30.544Z,4.80
2019-02-28T02:12:35.521Z,4.73
2019-02-28T02:17:42.168Z,5.17
2019-02-28T02:22:46.343Z,4.93
2019-02-28T02:27:53.227Z,4.90
2019-02-28T02:32:56.427Z,4.20
2019-02-28T02:38:03.591Z,6.43
2019-02-28T02:43:06.639Z,7.20
2019-02-28T02:48:10.814Z,5.43
2019-02-28T02:53:14.982Z,4.13
2019-02-28T02:58:19.149Z,5.20
2019-02-28T03:03:24.456Z,4.03
2019-02-28T03:08:35.874Z,5.70
2019-02-28T03:13:42.134Z,7.30
2019-02-28T03:18:40.371Z,5.37
2019-02-28T03:23:44.557Z,5.13
2019-02-28T03:28:49.129Z,5.60
2019-02-28T03:33:53.410Z,4.13
2019-02-28T03:38:57.607Z,3.87
2019-02-28T03:44:01.874Z,3.73
2019-02-28T03:49:11.019Z,5.37
2019-02-28T03:54:11.922Z,3.87
2019-02-28T03:59:18.936Z,3.97
2019-02-28T04:04:22.226Z,4.63
2019-02-28T04:09:26.394Z,5.53
2019-02-28T04:14:33.005Z,3.73
2019-02-28T04:19:37.525Z,4.37
2019-02-28T04:24:46.375Z,8.50
2019-02-28T04:29:47.622Z,5.17
2019-02-28T04:34:51.785Z,4.83
2019-02-28T04:39:55.977Z,3.50
2019-02-28T04:45:00.236Z,4.87
2019-02-28T04:50:05.071Z,8.53
2019-02-28T04:55:09.473Z,4.03
2019-02-28T05:00:13.669Z,5.80
2019-02-28T05:05:18.311Z,3.60
2019-02-28T05:10:23.042Z,3.33
2019-02-28T05:15:29.710Z,5.10
2019-02-28T05:20:33.922Z,6.20
2019-02-28T05:25:39.343Z,3.77
2019-02-28T05:30:43.538Z,4.50
2019-02-28T05:35:47.969Z,4.33
2019-02-28T05:40:52.150Z,4.40
2019-02-28T05:45:59.398Z,3.70
2019-02-28T05:51:03.805Z,5.37
2019-02-28T05:56:08.086Z,4.27
2019-02-28T06:01:12.594Z,15.80
2019-02-28T06:06:17.208Z,7.50
2019-02-28T06:11:22.881Z,4.50
2019-02-28T06:16:28.397Z,5.37
2019-02-28T06:21:32.657Z,7.17
2019-02-28T06:26:36.964Z,6.60
2019-02-28T06:31:41.176Z,5.70
2019-02-28T06:36:45.482Z,7.63
2019-02-28T06:41:49.649Z,6.90
2019-02-28T06:46:55.110Z,7.67
2019-02-28T06:51:59.311Z,7.63
2019-02-28T06:57:03.605Z,7.13
2019-02-28T07:02:08.975Z,8.43
2019-02-28T07:07:15.647Z,8.27
2019-02-28T07:12:19.840Z,6.73
2019-02-28T07:17:25.245Z,6.87
2019-02-28T07:22:29.531Z,7.63
2019-02-28T07:27:35.121Z,6.23
2019-02-28T07:32:39.341Z,4.73
2019-02-28T07:37:45.921Z,10.70
2019-02-28T07:42:50.151Z,5.47
2019-02-28T07:47:56.140Z,7.90
2019-02-28T07:53:00.368Z,7.77
2019-02-28T07:58:05.860Z,13.08
2019-02-28T08:03:11.292Z,18.43
2019-02-28T08:08:16.771Z,9.57
2019-02-28T08:13:21.193Z,12.05
2019-02-28T08:18:26.995Z,11.73
2019-02-28T08:23:31.356Z,11.93
2019-02-28T08:28:37.938Z,12.33
2019-02-28T08:33:43.291Z,12.60
2019-02-28T08:38:50.439Z,14.47
2019-02-28T08:43:55.070Z,12.47
2019-02-28T08:49:06.231Z,13.50
2019-02-28T08:54:07.081Z,14.97
2019-02-28T08:59:18.511Z,15.07
2019-02-28T09:04:22.226Z,14.60
2019-02-28T09:09:27.078Z,17.27
2019-02-28T09:14:31.552Z,15.80
2019-02-28T09:19:39.082Z,17.47
2019-02-28T09:24:46.730Z,16.90
2019-02-28T09:29:55.672Z,18.40
2019-02-28T09:35:02.489Z,26.03
2019-02-28T09:40:08.743Z,24.83
2019-02-28T09:45:14.359Z,26.83
2019-02-28T09:50:22.558Z,26.87
2019-02-28T09:55:26.446Z,30.00
2019-02-28T10:00:32.609Z,33.00
2019-02-28T10:05:38.823Z,34.10
2019-02-28T10:10:46.210Z,30.97
2019-02-28T10:15:50.684Z,34.73
2019-02-28T10:20:59.101Z,23.93
2019-02-28T10:26:02.793Z,35.23
2019-02-28T10:31:07.677Z,37.23
2019-02-28T10:36:12.902Z,35.40
2019-02-28T10:41:19.825Z,34.10
2019-02-28T10:46:25.373Z,31.97
2019-02-28T10:51:33.069Z,32.93
2019-02-28T10:56:39.523Z,32.03
2019-02-28T11:01:45.456Z,31.10
2019-02-28T11:06:50.879Z,29.03
2019-02-28T11:11:56.481Z,34.07
2019-02-28T11:17:00.960Z,28.70
2019-02-28T11:22:06.673Z,31.37
2019-02-28T11:27:11.162Z,30.53
2019-02-28T11:32:16.240Z,33.47
2019-02-28T11:37:20.772Z,31.57
2019-02-28T11:42:28.023Z,32.53
2019-02-28T11:47:32.462Z,37.27
2019-02-28T11:52:38.247Z,34.83
2019-02-28T11:57:42.691Z,28.40
2019-02-28T12:02:53.327Z,36.00
2019-02-28T12:07:56.402Z,29.30
2019-02-28T12:13:00.884Z,31.03
2019-02-28T12:18:05.358Z,31.53
2019-02-28T12:23:09.906Z,33.10
2019-02-28T12:28:14.434Z,33.20
2019-02-28T12:33:23.178Z,29.83
2019-02-28T12:38:29.033Z,33.73
2019-02-28T12:43:33.723Z,29.83
2019-02-28T12:48:38.199Z,28.63
2019-02-28T12:53:45.198Z,29.17
2019-02-28T12:58:49.663Z,29.23
2019-02-28T13:04:00.578Z,28.10
2019-02-28T13:09:04.498Z,28.23
2019-02-28T13:14:12.518Z,22.27
2019-02-28T13:19:20.076Z,30.10
2019-02-28T13:24:26.277Z,25.07
2019-02-28T13:29:32.714Z,25.70
2019-02-28T13:34:40.734Z,25.97
2019-02-28T13:39:47.370Z,28.10
2019-02-28T13:44:53.258Z,28.03
2019-02-28T13:49:57.780Z,30.03
2019-02-28T13:55:03.370Z,24.13
2019-02-28T14:00:11.642Z,24.70
2019-02-28T14:05:17.455Z,23.50
2019-02-28T14:10:22.536Z,21.90
2019-02-28T14:15:32.329Z,22.97
2019-02-28T14:20:37.839Z,22.80
2019-02-28T14:25:43.928Z,24.13
2019-02-28T14:30:48.485Z,18.57
2019-02-28T14:35:54.627Z,21.30
2019-02-28T14:40:59.474Z,17.50
2019-02-28T14:46:06.053Z,20.17
2019-02-28T14:51:11.871Z,15.77
2019-02-28T14:56:17.960Z,16.83
2019-02-28T15:01:22.621Z,20.03
2019-02-28T15:06:29.625Z,13.77
2019-02-28T15:11:34.712Z,15.53
2019-02-28T15:16:39.507Z,15.37
2019-02-28T15:21:43.992Z,18.53
2019-02-28T15:26:49.675Z,16.13
2019-02-28T15:31:54.396Z,16.80
2019-02-28T15:37:00.329Z,20.13
2019-02-28T15:42:05.519Z,16.10
2019-02-28T15:47:12.742Z,23.60
2019-02-28T15:52:17.223Z,20.33
2019-02-28T15:57:22.946Z,22.73
2019-02-28T16:02:27.562Z,22.43
2019-02-28T16:07:33.351Z,22.53
2019-02-28T16:12:38.028Z,28.63
2019-02-28T16:17:42.606Z,25.33
2019-02-28T16:22:52.062Z,28.00
2019-02-28T16:27:53.411Z,24.83
2019-02-28T16:32:58.358Z,24.30
2019-02-28T16:38:02.886Z,28.20
2019-02-28T16:43:07.366Z,28.93
2019-02-28T16:48:14.681Z,16.93
2019-02-28T16:53:19.173Z,25.20
2019-02-28T16:58:23.636Z,25.60
2019-02-28T17:03:28.105Z,25.97
2019-02-28T17:08:36.831Z,27.57
2019-02-28T17:13:44.323Z,28.57
2019-02-28T17:18:48.904Z,23.47
2019-02-28T17:23:53.477Z,26.77
2019-02-28T17:29:07.455Z,30.43
2019-02-28T17:34:14.908Z,30.00
2019-02-28T17:39:19.385Z,27.47
2019-02-28T17:44:34.043Z,21.13
2019-02-28T17:49:59.983Z,26.20
2019-02-28T17:55:31.109Z,26.60
2019-02-28T18:00:54.758Z,16.63
2019-02-28T18:06:11.983Z,22.63
2019-02-28T18:11:40.593Z,14.97
2019-02-28T18:17:04.454Z,16.30
2019-02-28T18:22:16.942Z,13.67
2019-02-28T18:27:39.902Z,17.77
2019-02-28T18:32:44.361Z,14.60
2019-02-28T18:37:50.397Z,15.37
2019-02-28T18:42:54.875Z,13.53
2019-02-28T18:47:59.362Z,18.60
2019-02-28T18:53:03.992Z,14.63
2019-02-28T18:58:08.558Z,16.07
2019-02-28T19:03:13.103Z,15.83
2019-02-28T19:08:17.665Z,21.33
2019-02-28T19:13:22.256Z,12.87
2019-02-28T19:18:28.355Z,12.93
2019-02-28T19:23:32.941Z,16.67
2019-02-28T19:28:38.625Z,13.50
2019-02-28T19:33:43.230Z,19.10
2019-02-28T19:38:49.275Z,11.33
2019-02-28T19:43:53.741Z,12.07
2019-02-28T19:48:59.498Z,16.50
2019-02-28T19:54:03.975Z,15.57
2019-02-28T19:59:10.717Z,12.13
2019-02-28T20:04:15.580Z,18.40
2019-02-28T20:09:21.716Z,15.03
2019-02-28T20:14:26.179Z,28.80
2019-02-28T20:19:32.490Z,36.27
2019-02-28T20:24:36.960Z,33.50
2019-02-28T20:29:41.753Z,44.50
2019-02-28T20:34:46.225Z,39.67
2019-02-28T20:39:51.666Z,30.10
2019-02-28T20:44:56.179Z,41.80
2019-02-28T20:50:05.935Z,28.60
2019-02-28T20:55:10.474Z,26.13
2019-02-28T21:00:16.845Z,26.13
2019-02-28T21:05:21.766Z,26.43
2019-02-28T21:10:27.223Z,26.77
2019-02-28T21:15:31.669Z,26.90
2019-02-28T21:20:36.592Z,31.55
2019-02-28T21:25:41.170Z,35.10
2019-02-28T21:30:45.684Z,27.13
2019-02-28T21:35:50.215Z,22.77
2019-02-28T21:40:55.358Z,21.33
2019-02-28T21:45:59.874Z,18.27
2019-02-28T21:51:04.768Z,13.68
2019-02-28T21:56:10.285Z,16.17
2019-02-28T22:01:14.881Z,13.37
2019-02-28T22:06:19.344Z,12.33
2019-02-28T22:11:23.786Z,15.30
2019-02-28T22:16:28.225Z,13.17
2019-02-28T22:21:33.806Z,10.20
2019-02-28T22:26:38.263Z,10.83
2019-02-28T22:32:24.182Z,14.23
2019-02-28T22:37:21.701Z,11.90
2019-02-28T22:42:27.311Z,13.30
2019-02-28T22:47:31.766Z,14.73
2019-02-28T22:52:37.337Z,10.53
2019-02-28T22:57:41.805Z,14.97
2019-02-28T23:02:47.538Z,16.43
2019-02-28T23:07:51.994Z,16.17
2019-02-28T23:12:56.472Z,18.87
2019-02-28T23:18:00.922Z,19.57
2019-02-28T23:23:05.183Z,15.85
2019-02-28T23:28:10.672Z,13.13
2019-02-28T23:33:17.386Z,13.57
2019-02-28T23:38:21.862Z,17.13
2019-02-28T23:43:26.395Z,17.23
2019-02-28T23:48:30.847Z,9.83
2019-02-28T23:53:35.914Z,12.00
2019-02-28T23:58:40.366Z,16.53
